Aviation Digital Data Service (ADDS)

Output produced by METARs form (1207 UTC 24 March 2017)
found at http://www.aviationweather.gov/adds/metars/
 
FOOG 241100Z 22004KT 9999 SCT010 31/26 Q1012
TAF FOOG 241100Z 2412/2512 18008KT 9999 SCT011 FEW020CB BKN030 
     PROB30 
     TEMPO 2423/2503 4500 TSRA BKN008 FEW018CB OVC030
       
FOOL 241100Z 18008KT 150V220 9999 SCT011 31/24 Q1012 NOSIG
TAF FOOL 241101Z 2412/2518 18006KT 9999 SCT011 FEW020CB BKN033 
     TEMPO 2514/2518 TS
       
FOON 241100Z /////KT 9999 FEW013 27/21 Q1014
FOON 241100Z /////KT 9999 FEW013 27/21 Q1014
FOOG 241100Z 22004KT 9999 SCT010 31/26 Q1012
TAF FOOG 241100Z 2412/2512 18008KT 9999 SCT011 FEW020CB BKN030 
     PROB30 
     TEMPO 2423/2503 4500 TSRA BKN008 FEW018CB OVC030
       
FOOL 241100Z 18008KT 150V220 9999 SCT011 31/24 Q1012 NOSIG
TAF FOOL 241101Z 2412/2518 18006KT 9999 SCT011 FEW020CB BKN033 
     TEMPO 2514/2518 TS
       
FOON 241100Z /////KT 9999 FEW013 27/21 Q1014
FOOL 241100Z 18008KT 150V220 9999 SCT011 31/24 Q1012 NOSIG
TAF FOOL 241101Z 2412/2518 18006KT 9999 SCT011 FEW020CB BKN033 
     TEMPO 2514/2518 TS
       
FOOG 241100Z 22004KT 9999 SCT010 31/26 Q1012
TAF FOOG 241100Z 2412/2512 18008KT 9999 SCT011 FEW020CB BKN030 
     PROB30 
     TEMPO 2423/2503 4500 TSRA BKN008 FEW018CB OVC030